Urbana, Arkansas
Current Conditions -  °F | °C
As of 11:53 AM on Monday 22 Dec 2014 (Local Time) from KELD Reporting Station
Overcast Overcast  
Wind Chill: 57°   Ceiling: 1500
Heat Index: 57°   Visibility: 10mi
Dew Point: 52°   Wind: 9mph
Humidity: 83%   Direction: 170°S
Pressure: 29.67"   Gusts: NA
Location:  33.16°N, 92.45°W
Report Text: KELD 221753Z AUTO 17008KT 10SM BKN015 BKN020 OVC055 14/11 A2967 RMK AO2 SLP045 T01390111 10139 20100 58025
Loading
Personal Weather Stations






























Interactive Weather Map New forecast layout! Learn more

10-Day Weather Forecast

Advertisements
Track Severe Weather on mobile